Lac-Au-Saumon, Canada
Current Conditions -  °F | °C
As of 6:00 AM on Saturday 25 Oct 2014 (Local Time) from CYYY Reporting Station
Broken Clouds Broken Clouds  
Wind Chill: 35°   Ceiling: 10000
Heat Index: 39°   Visibility: 30mi
Dew Point: 30°   Wind: 6mph
Humidity: 70%   Direction: 220°SW
Pressure: 29.67"   Gusts: NA
Location:  48.42°N, 67.33°W
Report Text: CYYY 251000Z 22005KT 30SM BKN100 04/M01 A2967 RMK AC7 SLP051
Loading
Personal Weather Stations






























Interactive Weather Map
Tropical Storm Tracking
New forecast layout! Learn more

10-Day Weather Forecast

Advertisements
Track Severe Weather on mobile